sensor_id;sensor_type;location;lat;lon;timestamp;P1;durP1;ratioP1;P2;durP2;ratioP2
23573;SDS011;11965;53.640;10.050;2023-05-03T00:00:12;4.03;;;4.03;;
23573;SDS011;11965;53.640;10.050;2023-05-03T00:02:40;3.85;;;3.85;;
23573;SDS011;11965;53.640;10.050;2023-05-03T00:05:09;4.15;;;4.15;;
23573;SDS011;11965;53.640;10.050;2023-05-03T00:07:37;4.32;;;4.32;;
23573;SDS011;11965;53.640;10.050;2023-05-03T00:10:06;4.43;;;4.43;;
23573;SDS011;11965;53.640;10.050;2023-05-03T00:12:36;4.44;;;4.44;;
23573;SDS011;11965;53.640;10.050;2023-05-03T00:15:04;4.37;;;4.37;;
23573;SDS011;11965;53.640;10.050;2023-05-03T00:17:32;4.27;;;4.27;;
23573;SDS011;11965;53.640;10.050;2023-05-03T00:19:59;4.34;;;4.34;;
23573;SDS011;11965;53.640;10.050;2023-05-03T00:22:25;4.03;;;4.03;;
23573;SDS011;11965;53.640;10.050;2023-05-03T00:24:52;4.17;;;4.17;;
23573;SDS011;11965;53.640;10.050;2023-05-03T00:27:21;4.34;;;4.34;;
23573;SDS011;11965;53.640;10.050;2023-05-03T00:29:50;4.24;;;4.24;;
23573;SDS011;11965;53.640;10.050;2023-05-03T00:32:18;4.29;;;4.29;;
23573;SDS011;11965;53.640;10.050;2023-05-03T00:34:52;4.23;;;4.23;;
23573;SDS011;11965;53.640;10.050;2023-05-03T00:37:19;4.76;;;4.76;;
23573;SDS011;11965;53.640;10.050;2023-05-03T00:39:46;4.16;;;4.16;;
23573;SDS011;11965;53.640;10.050;2023-05-03T00:42:13;4.15;;;4.15;;
23573;SDS011;11965;53.640;10.050;2023-05-03T00:44:40;4.36;;;4.36;;
23573;SDS011;11965;53.640;10.050;2023-05-03T00:47:08;4.36;;;4.36;;
23573;SDS011;11965;53.640;10.050;2023-05-03T00:49:35;4.05;;;4.05;;
23573;SDS011;11965;53.640;10.050;2023-05-03T00:52:02;4.40;;;4.40;;
23573;SDS011;11965;53.640;10.050;2023-05-03T00:54:32;4.48;;;4.48;;
23573;SDS011;11965;53.640;10.050;2023-05-03T00:57:00;3.99;;;3.99;;
23573;SDS011;11965;53.640;10.050;2023-05-03T00:59:32;4.34;;;4.34;;
23573;SDS011;11965;53.640;10.050;2023-05-03T01:01:59;4.62;;;4.62;;
23573;SDS011;11965;53.640;10.050;2023-05-03T01:04:28;4.55;;;4.55;;
23573;SDS011;11965;53.640;10.050;2023-05-03T01:06:59;4.46;;;4.46;;
23573;SDS011;11965;53.640;10.050;2023-05-03T01:09:37;4.27;;;4.27;;
23573;SDS011;11965;53.640;10.050;2023-05-03T01:12:15;4.40;;;4.40;;
23573;SDS011;11965;53.640;10.050;2023-05-03T01:14:58;4.22;;;4.22;;
23573;SDS011;11965;53.640;10.050;2023-05-03T01:17:34;4.37;;;4.37;;
23573;SDS011;11965;53.640;10.050;2023-05-03T01:20:07;4.55;;;4.55;;
23573;SDS011;11965;53.640;10.050;2023-05-03T01:22:38;4.35;;;4.35;;
23573;SDS011;11965;53.640;10.050;2023-05-03T01:25:29;4.14;;;4.14;;
23573;SDS011;11965;53.640;10.050;2023-05-03T01:27:57;4.33;;;4.33;;
23573;SDS011;11965;53.640;10.050;2023-05-03T01:30:25;4.28;;;4.28;;
23573;SDS011;11965;53.640;10.050;2023-05-03T01:32:55;4.80;;;4.80;;
23573;SDS011;11965;53.640;10.050;2023-05-03T01:35:33;4.21;;;4.21;;
23573;SDS011;11965;53.640;10.050;2023-05-03T01:38:08;4.22;;;4.22;;
23573;SDS011;11965;53.640;10.050;2023-05-03T01:40:44;4.64;;;4.64;;
23573;SDS011;11965;53.640;10.050;2023-05-03T01:43:17;4.76;;;4.76;;
23573;SDS011;11965;53.640;10.050;2023-05-03T01:45:45;4.69;;;4.69;;
23573;SDS011;11965;53.640;10.050;2023-05-03T01:48:14;4.56;;;4.56;;
23573;SDS011;11965;53.640;10.050;2023-05-03T01:50:43;4.54;;;4.54;;
23573;SDS011;11965;53.640;10.050;2023-05-03T01:53:10;4.92;;;4.92;;
23573;SDS011;11965;53.640;10.050;2023-05-03T01:55:37;4.69;;;4.69;;
23573;SDS011;11965;53.640;10.050;2023-05-03T01:58:05;4.49;;;4.49;;
23573;SDS011;11965;53.640;10.050;2023-05-03T02:00:32;4.61;;;4.61;;
23573;SDS011;11965;53.640;10.050;2023-05-03T02:02:59;4.63;;;4.63;;
23573;SDS011;11965;53.640;10.050;2023-05-03T02:05:26;4.64;;;4.64;;
23573;SDS011;11965;53.640;10.050;2023-05-03T02:07:55;4.75;;;4.75;;
23573;SDS011;11965;53.640;10.050;2023-05-03T02:10:22;4.97;;;4.97;;
23573;SDS011;11965;53.640;10.050;2023-05-03T02:12:49;5.00;;;5.00;;
23573;SDS011;11965;53.640;10.050;2023-05-03T02:15:23;4.73;;;4.73;;
23573;SDS011;11965;53.640;10.050;2023-05-03T02:17:50;4.63;;;4.63;;
23573;SDS011;11965;53.640;10.050;2023-05-03T02:20:18;4.50;;;4.50;;
23573;SDS011;11965;53.640;10.050;2023-05-03T02:22:45;4.64;;;4.64;;
23573;SDS011;11965;53.640;10.050;2023-05-03T02:25:12;4.81;;;4.81;;
23573;SDS011;11965;53.640;10.050;2023-05-03T02:27:39;4.58;;;4.58;;
23573;SDS011;11965;53.640;10.050;2023-05-03T02:30:06;4.70;;;4.70;;
23573;SDS011;11965;53.640;10.050;2023-05-03T02:32:41;4.66;;;4.66;;
23573;SDS011;11965;53.640;10.050;2023-05-03T02:35:08;4.87;;;4.87;;
23573;SDS011;11965;53.640;10.050;2023-05-03T02:37:35;4.58;;;4.58;;
23573;SDS011;11965;53.640;10.050;2023-05-03T02:40:07;4.63;;;4.63;;
23573;SDS011;11965;53.640;10.050;2023-05-03T02:42:35;4.74;;;4.74;;
23573;SDS011;11965;53.640;10.050;2023-05-03T02:45:04;4.94;;;4.94;;
23573;SDS011;11965;53.640;10.050;2023-05-03T02:47:31;4.62;;;4.62;;
23573;SDS011;11965;53.640;10.050;2023-05-03T02:49:59;4.62;;;4.62;;
23573;SDS011;11965;53.640;10.050;2023-05-03T02:52:30;4.92;;;4.92;;
23573;SDS011;11965;53.640;10.050;2023-05-03T02:54:57;4.60;;;4.60;;
23573;SDS011;11965;53.640;10.050;2023-05-03T02:57:26;4.65;;;4.65;;
23573;SDS011;11965;53.640;10.050;2023-05-03T02:59:55;4.74;;;4.74;;
23573;SDS011;11965;53.640;10.050;2023-05-03T03:02:21;4.80;;;4.80;;
23573;SDS011;11965;53.640;10.050;2023-05-03T03:04:48;4.56;;;4.56;;
23573;SDS011;11965;53.640;10.050;2023-05-03T03:07:17;4.98;;;4.98;;
23573;SDS011;11965;53.640;10.050;2023-05-03T03:09:47;4.80;;;4.80;;
23573;SDS011;11965;53.640;10.050;2023-05-03T03:12:14;4.73;;;4.73;;
23573;SDS011;11965;53.640;10.050;2023-05-03T03:14:41;4.75;;;4.75;;
23573;SDS011;11965;53.640;10.050;2023-05-03T03:17:10;4.78;;;4.78;;
23573;SDS011;11965;53.640;10.050;2023-05-03T03:19:37;4.74;;;4.74;;
23573;SDS011;11965;53.640;10.050;2023-05-03T03:22:04;5.09;;;5.09;;
23573;SDS011;11965;53.640;10.050;2023-05-03T03:24:35;4.69;;;4.69;;
23573;SDS011;11965;53.640;10.050;2023-05-03T03:27:03;4.78;;;4.78;;
23573;SDS011;11965;53.640;10.050;2023-05-03T03:29:30;4.85;;;4.85;;
23573;SDS011;11965;53.640;10.050;2023-05-03T03:32:00;4.73;;;4.73;;
23573;SDS011;11965;53.640;10.050;2023-05-03T03:34:28;4.42;;;4.42;;
23573;SDS011;11965;53.640;10.050;2023-05-03T03:36:55;4.43;;;4.43;;
23573;SDS011;11965;53.640;10.050;2023-05-03T03:39:24;4.60;;;4.60;;
23573;SDS011;11965;53.640;10.050;2023-05-03T03:41:53;4.76;;;4.76;;
23573;SDS011;11965;53.640;10.050;2023-05-03T03:44:20;4.66;;;4.66;;
23573;SDS011;11965;53.640;10.050;2023-05-03T03:46:48;4.78;;;4.78;;
23573;SDS011;11965;53.640;10.050;2023-05-03T03:49:16;4.96;;;4.96;;
23573;SDS011;11965;53.640;10.050;2023-05-03T03:51:43;4.60;;;4.60;;
23573;SDS011;11965;53.640;10.050;2023-05-03T03:54:10;4.39;;;4.39;;
23573;SDS011;11965;53.640;10.050;2023-05-03T03:56:42;4.51;;;4.51;;
23573;SDS011;11965;53.640;10.050;2023-05-03T03:59:10;4.69;;;4.69;;
23573;SDS011;11965;53.640;10.050;2023-05-03T04:01:38;4.88;;;4.88;;
23573;SDS011;11965;53.640;10.050;2023-05-03T04:04:05;4.83;;;4.83;;
23573;SDS011;11965;53.640;10.050;2023-05-03T04:06:32;5.02;;;5.02;;
23573;SDS011;11965;53.640;10.050;2023-05-03T04:09:04;5.00;;;5.00;;
23573;SDS011;11965;53.640;10.050;2023-05-03T04:11:33;5.31;;;5.31;;
23573;SDS011;11965;53.640;10.050;2023-05-03T04:14:04;5.35;;;5.35;;
23573;SDS011;11965;53.640;10.050;2023-05-03T04:16:33;5.42;;;5.42;;
23573;SDS011;11965;53.640;10.050;2023-05-03T04:19:01;5.58;;;5.58;;
23573;SDS011;11965;53.640;10.050;2023-05-03T04:21:30;5.88;;;5.88;;
23573;SDS011;11965;53.640;10.050;2023-05-03T04:23:57;5.69;;;5.69;;
23573;SDS011;11965;53.640;10.050;2023-05-03T04:26:25;6.08;;;6.08;;
23573;SDS011;11965;53.640;10.050;2023-05-03T04:28:55;6.07;;;6.07;;
23573;SDS011;11965;53.640;10.050;2023-05-03T04:31:22;6.88;;;6.87;;
23573;SDS011;11965;53.640;10.050;2023-05-03T04:33:53;6.85;;;6.79;;
23573;SDS011;11965;53.640;10.050;2023-05-03T04:36:21;6.65;;;6.65;;
23573;SDS011;11965;53.640;10.050;2023-05-03T04:38:51;6.05;;;6.05;;
23573;SDS011;11965;53.640;10.050;2023-05-03T04:41:18;6.56;;;6.56;;
23573;SDS011;11965;53.640;10.050;2023-05-03T04:43:46;6.32;;;6.32;;
23573;SDS011;11965;53.640;10.050;2023-05-03T04:46:14;6.36;;;6.36;;
23573;SDS011;11965;53.640;10.050;2023-05-03T04:48:43;6.74;;;6.74;;
23573;SDS011;11965;53.640;10.050;2023-05-03T04:51:12;6.94;;;6.94;;
23573;SDS011;11965;53.640;10.050;2023-05-03T04:53:43;7.29;;;7.29;;
23573;SDS011;11965;53.640;10.050;2023-05-03T04:56:15;7.21;;;7.21;;
23573;SDS011;11965;53.640;10.050;2023-05-03T04:58:44;7.15;;;7.15;;
23573;SDS011;11965;53.640;10.050;2023-05-03T05:01:13;6.86;;;6.86;;
23573;SDS011;11965;53.640;10.050;2023-05-03T05:03:40;6.93;;;6.93;;
23573;SDS011;11965;53.640;10.050;2023-05-03T05:06:15;6.93;;;6.93;;
23573;SDS011;11965;53.640;10.050;2023-05-03T05:08:43;7.17;;;7.17;;
23573;SDS011;11965;53.640;10.050;2023-05-03T05:11:13;6.64;;;6.64;;
23573;SDS011;11965;53.640;10.050;2023-05-03T05:13:41;6.96;;;6.96;;
23573;SDS011;11965;53.640;10.050;2023-05-03T05:16:08;6.89;;;6.89;;
23573;SDS011;11965;53.640;10.050;2023-05-03T05:18:39;6.62;;;6.62;;
23573;SDS011;11965;53.640;10.050;2023-05-03T05:21:08;6.27;;;6.27;;
23573;SDS011;11965;53.640;10.050;2023-05-03T05:23:38;6.46;;;6.46;;
23573;SDS011;11965;53.640;10.050;2023-05-03T05:26:05;6.31;;;6.31;;
23573;SDS011;11965;53.640;10.050;2023-05-03T05:28:32;6.21;;;6.21;;
23573;SDS011;11965;53.640;10.050;2023-05-03T05:31:00;6.04;;;6.04;;
23573;SDS011;11965;53.640;10.050;2023-05-03T05:33:27;5.99;;;5.98;;
23573;SDS011;11965;53.640;10.050;2023-05-03T05:35:55;5.79;;;5.79;;
23573;SDS011;11965;53.640;10.050;2023-05-03T05:38:22;5.47;;;5.47;;
23573;SDS011;11965;53.640;10.050;2023-05-03T05:40:54;5.45;;;5.45;;
23573;SDS011;11965;53.640;10.050;2023-05-03T05:43:23;5.55;;;5.55;;
23573;SDS011;11965;53.640;10.050;2023-05-03T05:45:50;5.27;;;5.27;;
23573;SDS011;11965;53.640;10.050;2023-05-03T05:48:21;5.04;;;5.04;;
23573;SDS011;11965;53.640;10.050;2023-05-03T05:50:48;5.00;;;5.00;;
23573;SDS011;11965;53.640;10.050;2023-05-03T05:53:16;4.26;;;4.26;;
23573;SDS011;11965;53.640;10.050;2023-05-03T05:55:54;4.25;;;4.25;;
23573;SDS011;11965;53.640;10.050;2023-05-03T05:58:23;4.66;;;4.66;;
23573;SDS011;11965;53.640;10.050;2023-05-03T06:00:56;4.06;;;4.06;;
23573;SDS011;11965;53.640;10.050;2023-05-03T06:03:24;4.12;;;4.12;;
23573;SDS011;11965;53.640;10.050;2023-05-03T06:05:52;3.78;;;3.77;;
23573;SDS011;11965;53.640;10.050;2023-05-03T06:08:19;3.55;;;3.55;;
23573;SDS011;11965;53.640;10.050;2023-05-03T06:10:46;3.39;;;3.39;;
23573;SDS011;11965;53.640;10.050;2023-05-03T06:13:15;3.19;;;3.19;;
23573;SDS011;11965;53.640;10.050;2023-05-03T06:15:44;3.45;;;3.45;;
23573;SDS011;11965;53.640;10.050;2023-05-03T06:18:11;3.25;;;3.25;;
23573;SDS011;11965;53.640;10.050;2023-05-03T06:20:38;3.17;;;3.17;;
23573;SDS011;11965;53.640;10.050;2023-05-03T06:23:05;3.51;;;3.51;;
23573;SDS011;11965;53.640;10.050;2023-05-03T06:25:35;3.35;;;3.35;;
23573;SDS011;11965;53.640;10.050;2023-05-03T06:28:03;3.07;;;3.07;;
23573;SDS011;11965;53.640;10.050;2023-05-03T06:30:33;3.12;;;3.12;;
23573;SDS011;11965;53.640;10.050;2023-05-03T06:33:06;3.23;;;3.23;;
23573;SDS011;11965;53.640;10.050;2023-05-03T06:35:34;2.37;;;2.37;;
23573;SDS011;11965;53.640;10.050;2023-05-03T06:38:01;5.70;;;5.70;;
23573;SDS011;11965;53.640;10.050;2023-05-03T06:40:28;3.04;;;3.04;;
23573;SDS011;11965;53.640;10.050;2023-05-03T06:42:55;2.71;;;2.71;;
23573;SDS011;11965;53.640;10.050;2023-05-03T06:45:35;2.47;;;2.47;;
23573;SDS011;11965;53.640;10.050;2023-05-03T06:48:02;2.11;;;2.11;;
23573;SDS011;11965;53.640;10.050;2023-05-03T06:50:29;2.15;;;2.15;;
23573;SDS011;11965;53.640;10.050;2023-05-03T06:52:56;2.17;;;2.17;;
23573;SDS011;11965;53.640;10.050;2023-05-03T06:55:23;2.21;;;2.21;;
23573;SDS011;11965;53.640;10.050;2023-05-03T06:57:50;1.99;;;1.99;;
23573;SDS011;11965;53.640;10.050;2023-05-03T07:00:18;2.16;;;2.16;;
23573;SDS011;11965;53.640;10.050;2023-05-03T07:02:48;1.88;;;1.88;;
23573;SDS011;11965;53.640;10.050;2023-05-03T07:05:15;2.04;;;2.04;;
23573;SDS011;11965;53.640;10.050;2023-05-03T07:07:42;2.18;;;2.18;;
23573;SDS011;11965;53.640;10.050;2023-05-03T07:10:10;1.92;;;1.92;;
23573;SDS011;11965;53.640;10.050;2023-05-03T07:12:37;1.77;;;1.77;;
23573;SDS011;11965;53.640;10.050;2023-05-03T07:15:04;1.51;;;1.51;;
23573;SDS011;11965;53.640;10.050;2023-05-03T07:17:31;1.77;;;1.75;;
23573;SDS011;11965;53.640;10.050;2023-05-03T07:20:00;1.78;;;1.76;;
23573;SDS011;11965;53.640;10.050;2023-05-03T07:22:27;1.76;;;1.76;;
23573;SDS011;11965;53.640;10.050;2023-05-03T07:24:54;1.60;;;1.57;;
23573;SDS011;11965;53.640;10.050;2023-05-03T07:27:23;1.75;;;1.71;;
23573;SDS011;11965;53.640;10.050;2023-05-03T07:29:50;1.81;;;1.79;;
23573;SDS011;11965;53.640;10.050;2023-05-03T07:32:18;1.79;;;1.78;;
23573;SDS011;11965;53.640;10.050;2023-05-03T07:34:46;1.70;;;1.70;;
23573;SDS011;11965;53.640;10.050;2023-05-03T07:37:14;1.71;;;1.71;;
23573;SDS011;11965;53.640;10.050;2023-05-03T07:39:41;1.55;;;1.55;;
23573;SDS011;11965;53.640;10.050;2023-05-03T07:42:09;1.57;;;1.57;;
23573;SDS011;11965;53.640;10.050;2023-05-03T07:44:38;1.57;;;1.57;;
23573;SDS011;11965;53.640;10.050;2023-05-03T07:47:07;1.84;;;1.84;;
23573;SDS011;11965;53.640;10.050;2023-05-03T07:49:36;1.61;;;1.61;;
23573;SDS011;11965;53.640;10.050;2023-05-03T07:52:03;1.36;;;1.36;;
23573;SDS011;11965;53.640;10.050;2023-05-03T07:54:32;1.87;;;1.87;;
23573;SDS011;11965;53.640;10.050;2023-05-03T07:56:59;1.78;;;1.78;;
23573;SDS011;11965;53.640;10.050;2023-05-03T07:59:28;1.70;;;1.70;;
23573;SDS011;11965;53.640;10.050;2023-05-03T08:01:55;1.65;;;1.65;;
23573;SDS011;11965;53.640;10.050;2023-05-03T08:04:21;1.77;;;1.77;;
23573;SDS011;11965;53.640;10.050;2023-05-03T08:06:48;1.43;;;1.43;;
23573;SDS011;11965;53.640;10.050;2023-05-03T08:09:15;1.33;;;1.33;;
23573;SDS011;11965;53.640;10.050;2023-05-03T08:11:44;1.67;;;1.67;;
23573;SDS011;11965;53.640;10.050;2023-05-03T08:14:11;1.63;;;1.63;;
23573;SDS011;11965;53.640;10.050;2023-05-03T08:16:38;1.49;;;1.49;;
23573;SDS011;11965;53.640;10.050;2023-05-03T08:19:05;1.63;;;1.63;;
23573;SDS011;11965;53.640;10.050;2023-05-03T08:21:32;1.70;;;1.70;;
23573;SDS011;11965;53.640;10.050;2023-05-03T08:24:02;1.62;;;1.62;;
23573;SDS011;11965;53.640;10.050;2023-05-03T08:26:30;1.74;;;1.74;;
23573;SDS011;11965;53.640;10.050;2023-05-03T08:28:58;1.59;;;1.59;;
23573;SDS011;11965;53.640;10.050;2023-05-03T08:31:27;1.42;;;1.42;;
23573;SDS011;11965;53.640;10.050;2023-05-03T08:33:55;1.56;;;1.56;;
23573;SDS011;11965;53.640;10.050;2023-05-03T08:36:22;1.45;;;1.45;;
23573;SDS011;11965;53.640;10.050;2023-05-03T08:38:49;1.53;;;1.53;;
23573;SDS011;11965;53.640;10.050;2023-05-03T08:41:17;1.63;;;1.63;;
23573;SDS011;11965;53.640;10.050;2023-05-03T08:43:52;1.47;;;1.47;;
23573;SDS011;11965;53.640;10.050;2023-05-03T08:46:22;1.46;;;1.46;;
23573;SDS011;11965;53.640;10.050;2023-05-03T08:48:51;1.53;;;1.53;;
23573;SDS011;11965;53.640;10.050;2023-05-03T08:51:19;1.59;;;1.59;;
23573;SDS011;11965;53.640;10.050;2023-05-03T08:53:47;1.57;;;1.57;;
23573;SDS011;11965;53.640;10.050;2023-05-03T08:56:17;1.32;;;1.32;;
23573;SDS011;11965;53.640;10.050;2023-05-03T08:58:58;1.56;;;1.56;;
23573;SDS011;11965;53.640;10.050;2023-05-03T09:01:33;1.41;;;1.41;;
23573;SDS011;11965;53.640;10.050;2023-05-03T09:04:01;2.18;;;2.18;;
23573;SDS011;11965;53.640;10.050;2023-05-03T09:06:29;1.50;;;1.50;;
23573;SDS011;11965;53.640;10.050;2023-05-03T09:08:57;1.53;;;1.53;;
23573;SDS011;11965;53.640;10.050;2023-05-03T09:11:25;1.65;;;1.65;;
23573;SDS011;11965;53.640;10.050;2023-05-03T09:13:54;1.79;;;1.79;;
23573;SDS011;11965;53.640;10.050;2023-05-03T09:16:36;1.72;;;1.72;;
23573;SDS011;11965;53.640;10.050;2023-05-03T09:19:05;2.02;;;2.02;;
23573;SDS011;11965;53.640;10.050;2023-05-03T09:21:36;1.91;;;1.91;;
23573;SDS011;11965;53.640;10.050;2023-05-03T09:24:10;1.86;;;1.86;;
23573;SDS011;11965;53.640;10.050;2023-05-03T09:26:39;1.80;;;1.80;;
23573;SDS011;11965;53.640;10.050;2023-05-03T09:29:09;1.96;;;1.96;;
23573;SDS011;11965;53.640;10.050;2023-05-03T09:31:57;1.85;;;1.85;;
23573;SDS011;11965;53.640;10.050;2023-05-03T09:34:25;2.00;;;2.00;;
23573;SDS011;11965;53.640;10.050;2023-05-03T09:36:52;1.90;;;1.90;;
23573;SDS011;11965;53.640;10.050;2023-05-03T09:39:19;1.85;;;1.85;;
23573;SDS011;11965;53.640;10.050;2023-05-03T09:41:46;1.68;;;1.68;;
23573;SDS011;11965;53.640;10.050;2023-05-03T09:44:13;1.97;;;1.97;;
23573;SDS011;11965;53.640;10.050;2023-05-03T09:46:41;2.02;;;2.02;;
23573;SDS011;11965;53.640;10.050;2023-05-03T09:49:28;1.88;;;1.88;;
23573;SDS011;11965;53.640;10.050;2023-05-03T09:51:56;1.73;;;1.73;;
23573;SDS011;11965;53.640;10.050;2023-05-03T09:54:25;1.83;;;1.83;;
23573;SDS011;11965;53.640;10.050;2023-05-03T09:56:55;1.95;;;1.95;;
23573;SDS011;11965;53.640;10.050;2023-05-03T09:59:23;1.74;;;1.74;;
23573;SDS011;11965;53.640;10.050;2023-05-03T10:01:54;1.62;;;1.62;;
23573;SDS011;11965;53.640;10.050;2023-05-03T10:04:23;1.90;;;1.90;;
23573;SDS011;11965;53.640;10.050;2023-05-03T10:06:54;1.82;;;1.82;;
23573;SDS011;11965;53.640;10.050;2023-05-03T10:09:28;1.98;;;1.98;;
23573;SDS011;11965;53.640;10.050;2023-05-03T10:12:03;1.80;;;1.80;;
23573;SDS011;11965;53.640;10.050;2023-05-03T10:14:33;1.79;;;1.79;;
23573;SDS011;11965;53.640;10.050;2023-05-03T10:17:03;1.76;;;1.76;;
23573;SDS011;11965;53.640;10.050;2023-05-03T10:19:36;1.70;;;1.70;;
23573;SDS011;11965;53.640;10.050;2023-05-03T10:22:11;1.96;;;1.94;;
23573;SDS011;11965;53.640;10.050;2023-05-03T10:27:49;1.99;;;1.98;;
23573;SDS011;11965;53.640;10.050;2023-05-03T10:30:27;1.77;;;1.74;;
23573;SDS011;11965;53.640;10.050;2023-05-03T10:32:56;1.66;;;1.63;;
23573;SDS011;11965;53.640;10.050;2023-05-03T10:35:26;1.83;;;1.82;;
23573;SDS011;11965;53.640;10.050;2023-05-03T10:37:55;1.85;;;1.84;;
23573;SDS011;11965;53.640;10.050;2023-05-03T10:40:23;1.70;;;1.70;;
23573;SDS011;11965;53.640;10.050;2023-05-03T10:43:06;1.95;;;1.93;;
23573;SDS011;11965;53.640;10.050;2023-05-03T10:45:33;2.22;;;2.19;;
23573;SDS011;11965;53.640;10.050;2023-05-03T10:50:47;2.04;;;2.04;;
23573;SDS011;11965;53.640;10.050;2023-05-03T10:53:35;1.82;;;1.82;;
23573;SDS011;11965;53.640;10.050;2023-05-03T10:56:04;2.02;;;2.02;;
23573;SDS011;11965;53.640;10.050;2023-05-03T10:58:34;2.22;;;2.22;;
23573;SDS011;11965;53.640;10.050;2023-05-03T11:01:03;1.93;;;1.93;;
23573;SDS011;11965;53.640;10.050;2023-05-03T11:03:40;2.00;;;2.00;;
23573;SDS011;11965;53.640;10.050;2023-05-03T11:06:25;1.90;;;1.90;;
23573;SDS011;11965;53.640;10.050;2023-05-03T11:08:53;2.13;;;2.13;;
23573;SDS011;11965;53.640;10.050;2023-05-03T11:11:20;2.05;;;2.05;;
23573;SDS011;11965;53.640;10.050;2023-05-03T11:13:49;2.18;;;2.18;;
23573;SDS011;11965;53.640;10.050;2023-05-03T11:16:18;2.12;;;2.12;;
23573;SDS011;11965;53.640;10.050;2023-05-03T11:18:46;2.75;;;2.75;;
23573;SDS011;11965;53.640;10.050;2023-05-03T11:21:14;2.26;;;2.26;;
23573;SDS011;11965;53.640;10.050;2023-05-03T11:23:41;2.21;;;2.21;;
23573;SDS011;11965;53.640;10.050;2023-05-03T11:26:10;2.12;;;2.12;;
23573;SDS011;11965;53.640;10.050;2023-05-03T11:28:37;2.01;;;2.01;;
23573;SDS011;11965;53.640;10.050;2023-05-03T11:31:04;1.92;;;1.92;;
23573;SDS011;11965;53.640;10.050;2023-05-03T11:33:32;1.82;;;1.82;;
23573;SDS011;11965;53.640;10.050;2023-05-03T11:36:01;2.08;;;2.08;;
23573;SDS011;11965;53.640;10.050;2023-05-03T11:38:30;2.23;;;2.23;;
23573;SDS011;11965;53.640;10.050;2023-05-03T11:40:57;1.98;;;1.98;;
23573;SDS011;11965;53.640;10.050;2023-05-03T11:43:25;2.30;;;2.30;;
23573;SDS011;11965;53.640;10.050;2023-05-03T11:45:53;2.33;;;2.33;;
23573;SDS011;11965;53.640;10.050;2023-05-03T11:48:23;2.33;;;2.33;;
23573;SDS011;11965;53.640;10.050;2023-05-03T11:50:52;2.10;;;2.10;;
23573;SDS011;11965;53.640;10.050;2023-05-03T11:53:22;2.14;;;2.14;;
23573;SDS011;11965;53.640;10.050;2023-05-03T11:55:51;2.39;;;2.39;;
23573;SDS011;11965;53.640;10.050;2023-05-03T11:58:20;2.26;;;2.26;;
23573;SDS011;11965;53.640;10.050;2023-05-03T12:00:49;2.30;;;2.30;;
23573;SDS011;11965;53.640;10.050;2023-05-03T12:03:18;2.28;;;2.28;;
23573;SDS011;11965;53.640;10.050;2023-05-03T12:05:48;2.36;;;2.36;;
23573;SDS011;11965;53.640;10.050;2023-05-03T12:08:17;2.25;;;2.25;;
23573;SDS011;11965;53.640;10.050;2023-05-03T12:10:49;2.34;;;2.34;;
23573;SDS011;11965;53.640;10.050;2023-05-03T12:13:25;2.10;;;2.10;;
23573;SDS011;11965;53.640;10.050;2023-05-03T12:15:55;2.31;;;2.31;;
23573;SDS011;11965;53.640;10.050;2023-05-03T12:18:24;2.24;;;2.24;;
23573;SDS011;11965;53.640;10.050;2023-05-03T12:20:54;2.39;;;2.39;;
23573;SDS011;11965;53.640;10.050;2023-05-03T12:23:24;2.09;;;2.09;;
23573;SDS011;11965;53.640;10.050;2023-05-03T12:25:52;2.28;;;2.28;;
23573;SDS011;11965;53.640;10.050;2023-05-03T12:28:19;2.26;;;2.26;;
23573;SDS011;11965;53.640;10.050;2023-05-03T12:30:46;2.30;;;2.30;;
23573;SDS011;11965;53.640;10.050;2023-05-03T12:33:13;2.55;;;2.55;;
23573;SDS011;11965;53.640;10.050;2023-05-03T12:35:42;2.41;;;2.41;;
23573;SDS011;11965;53.640;10.050;2023-05-03T12:38:09;2.25;;;2.25;;
23573;SDS011;11965;53.640;10.050;2023-05-03T12:40:36;2.33;;;2.33;;
23573;SDS011;11965;53.640;10.050;2023-05-03T12:43:06;2.58;;;2.58;;
23573;SDS011;11965;53.640;10.050;2023-05-03T12:45:33;2.25;;;2.25;;
23573;SDS011;11965;53.640;10.050;2023-05-03T12:48:00;2.39;;;2.39;;
23573;SDS011;11965;53.640;10.050;2023-05-03T12:50:27;2.56;;;2.56;;
23573;SDS011;11965;53.640;10.050;2023-05-03T12:52:55;2.41;;;2.41;;
23573;SDS011;11965;53.640;10.050;2023-05-03T12:55:22;2.18;;;2.18;;
23573;SDS011;11965;53.640;10.050;2023-05-03T12:57:50;2.34;;;2.34;;
23573;SDS011;11965;53.640;10.050;2023-05-03T13:00:18;2.58;;;2.58;;
23573;SDS011;11965;53.640;10.050;2023-05-03T13:02:46;2.33;;;2.33;;
23573;SDS011;11965;53.640;10.050;2023-05-03T13:05:13;2.39;;;2.39;;
23573;SDS011;11965;53.640;10.050;2023-05-03T13:07:40;2.35;;;2.35;;
23573;SDS011;11965;53.640;10.050;2023-05-03T13:10:08;2.64;;;2.64;;
23573;SDS011;11965;53.640;10.050;2023-05-03T13:12:35;2.70;;;2.70;;
23573;SDS011;11965;53.640;10.050;2023-05-03T13:15:02;2.95;;;2.95;;
23573;SDS011;11965;53.640;10.050;2023-05-03T13:17:31;2.70;;;2.70;;
23573;SDS011;11965;53.640;10.050;2023-05-03T13:19:58;2.54;;;2.54;;
23573;SDS011;11965;53.640;10.050;2023-05-03T13:22:27;2.79;;;2.79;;
23573;SDS011;11965;53.640;10.050;2023-05-03T13:24:54;2.87;;;2.87;;
23573;SDS011;11965;53.640;10.050;2023-05-03T13:27:21;3.03;;;3.03;;
23573;SDS011;11965;53.640;10.050;2023-05-03T13:29:50;3.13;;;3.13;;
23573;SDS011;11965;53.640;10.050;2023-05-03T13:32:17;2.89;;;2.89;;
23573;SDS011;11965;53.640;10.050;2023-05-03T13:34:45;3.08;;;3.08;;
23573;SDS011;11965;53.640;10.050;2023-05-03T13:37:12;3.06;;;3.06;;
23573;SDS011;11965;53.640;10.050;2023-05-03T13:39:51;2.76;;;2.76;;
23573;SDS011;11965;53.640;10.050;2023-05-03T13:42:18;2.70;;;2.70;;
23573;SDS011;11965;53.640;10.050;2023-05-03T13:44:45;2.97;;;2.97;;
23573;SDS011;11965;53.640;10.050;2023-05-03T13:47:12;3.03;;;3.03;;
23573;SDS011;11965;53.640;10.050;2023-05-03T13:49:39;3.09;;;3.09;;
23573;SDS011;11965;53.640;10.050;2023-05-03T13:52:09;3.20;;;3.20;;
23573;SDS011;11965;53.640;10.050;2023-05-03T13:54:36;2.91;;;2.91;;
23573;SDS011;11965;53.640;10.050;2023-05-03T13:57:03;3.15;;;3.15;;
23573;SDS011;11965;53.640;10.050;2023-05-03T13:59:30;3.03;;;3.03;;
23573;SDS011;11965;53.640;10.050;2023-05-03T14:02:00;3.31;;;3.31;;
23573;SDS011;11965;53.640;10.050;2023-05-03T14:04:27;3.30;;;3.30;;
23573;SDS011;11965;53.640;10.050;2023-05-03T14:06:55;3.48;;;3.48;;
23573;SDS011;11965;53.640;10.050;2023-05-03T14:09:24;3.57;;;3.57;;
23573;SDS011;11965;53.640;10.050;2023-05-03T14:11:51;3.86;;;3.86;;
23573;SDS011;11965;53.640;10.050;2023-05-03T14:14:18;3.84;;;3.84;;
23573;SDS011;11965;53.640;10.050;2023-05-03T14:16:45;3.91;;;3.91;;
23573;SDS011;11965;53.640;10.050;2023-05-03T14:19:12;3.92;;;3.92;;
23573;SDS011;11965;53.640;10.050;2023-05-03T14:21:41;4.55;;;4.55;;
23573;SDS011;11965;53.640;10.050;2023-05-03T14:24:13;4.41;;;4.41;;
23573;SDS011;11965;53.640;10.050;2023-05-03T14:26:42;3.90;;;3.90;;
23573;SDS011;11965;53.640;10.050;2023-05-03T14:29:08;3.98;;;3.98;;
23573;SDS011;11965;53.640;10.050;2023-05-03T14:31:35;4.13;;;4.13;;
23573;SDS011;11965;53.640;10.050;2023-05-03T14:34:02;4.41;;;4.41;;
23573;SDS011;11965;53.640;10.050;2023-05-03T14:36:29;4.10;;;4.10;;
23573;SDS011;11965;53.640;10.050;2023-05-03T14:39:00;4.45;;;4.45;;
23573;SDS011;11965;53.640;10.050;2023-05-03T14:41:28;5.24;;;5.24;;
23573;SDS011;11965;53.640;10.050;2023-05-03T14:43:57;3.96;;;3.96;;
23573;SDS011;11965;53.640;10.050;2023-05-03T14:46:24;4.63;;;4.63;;
23573;SDS011;11965;53.640;10.050;2023-05-03T14:48:51;4.36;;;4.36;;